sensor_id;sensor_type;location;lat;lon;timestamp;P1;durP1;ratioP1;P2;durP2;ratioP2
78834;SDS011;68187;42.682;23.352;2023-05-10T00:00:17;6.88;;;4.63;;
78834;SDS011;68187;42.682;23.352;2023-05-10T00:02:46;7.88;;;5.60;;
78834;SDS011;68187;42.682;23.352;2023-05-10T00:05:13;7.20;;;5.50;;
78834;SDS011;68187;42.682;23.352;2023-05-10T00:07:40;8.35;;;6.13;;
78834;SDS011;68187;42.682;23.352;2023-05-10T00:10:09;9.48;;;7.25;;
78834;SDS011;68187;42.682;23.352;2023-05-10T00:12:36;8.00;;;6.05;;
78834;SDS011;68187;42.682;23.352;2023-05-10T00:15:03;10.25;;;6.05;;
78834;SDS011;68187;42.682;23.352;2023-05-10T00:17:31;8.55;;;6.82;;
78834;SDS011;68187;42.682;23.352;2023-05-10T00:19:59;8.40;;;7.55;;
78834;SDS011;68187;42.682;23.352;2023-05-10T00:22:26;9.23;;;6.82;;
78834;SDS011;68187;42.682;23.352;2023-05-10T00:24:52;9.05;;;6.97;;
78834;SDS011;68187;42.682;23.352;2023-05-10T00:27:19;10.35;;;7.43;;
78834;SDS011;68187;42.682;23.352;2023-05-10T00:29:46;9.05;;;7.50;;
78834;SDS011;68187;42.682;23.352;2023-05-10T00:32:12;8.13;;;6.63;;
78834;SDS011;68187;42.682;23.352;2023-05-10T00:34:39;9.20;;;7.47;;
78834;SDS011;68187;42.682;23.352;2023-05-10T00:37:07;11.00;;;7.97;;
78834;SDS011;68187;42.682;23.352;2023-05-10T00:39:34;11.10;;;7.70;;
78834;SDS011;68187;42.682;23.352;2023-05-10T00:42:01;8.88;;;6.90;;
78834;SDS011;68187;42.682;23.352;2023-05-10T00:44:29;10.15;;;7.65;;
78834;SDS011;68187;42.682;23.352;2023-05-10T00:46:56;10.38;;;6.97;;
78834;SDS011;68187;42.682;23.352;2023-05-10T00:49:23;10.23;;;7.03;;
78834;SDS011;68187;42.682;23.352;2023-05-10T00:51:50;9.80;;;6.97;;
78834;SDS011;68187;42.682;23.352;2023-05-10T00:54:18;9.93;;;7.63;;
78834;SDS011;68187;42.682;23.352;2023-05-10T00:56:46;10.15;;;7.82;;
78834;SDS011;68187;42.682;23.352;2023-05-10T00:59:14;11.35;;;8.85;;
78834;SDS011;68187;42.682;23.352;2023-05-10T01:01:42;11.13;;;6.75;;
78834;SDS011;68187;42.682;23.352;2023-05-10T01:04:10;10.70;;;8.18;;
78834;SDS011;68187;42.682;23.352;2023-05-10T01:06:37;11.70;;;9.20;;
78834;SDS011;68187;42.682;23.352;2023-05-10T01:09:04;10.35;;;7.72;;
78834;SDS011;68187;42.682;23.352;2023-05-10T01:11:32;9.70;;;8.30;;
78834;SDS011;68187;42.682;23.352;2023-05-10T01:14:00;10.07;;;8.18;;
78834;SDS011;68187;42.682;23.352;2023-05-10T01:16:28;10.10;;;7.88;;
78834;SDS011;68187;42.682;23.352;2023-05-10T01:18:58;9.85;;;6.97;;
78834;SDS011;68187;42.682;23.352;2023-05-10T01:21:27;10.85;;;7.30;;
78834;SDS011;68187;42.682;23.352;2023-05-10T01:24:19;9.23;;;7.03;;
78834;SDS011;68187;42.682;23.352;2023-05-10T01:27:18;8.18;;;6.05;;
78834;SDS011;68187;42.682;23.352;2023-05-10T01:32:58;8.90;;;6.93;;
78834;SDS011;68187;42.682;23.352;2023-05-10T01:35:30;9.82;;;6.75;;
78834;SDS011;68187;42.682;23.352;2023-05-10T01:38:03;9.68;;;6.78;;
78834;SDS011;68187;42.682;23.352;2023-05-10T01:40:35;8.15;;;7.13;;
78834;SDS011;68187;42.682;23.352;2023-05-10T01:43:07;9.73;;;8.38;;
78834;SDS011;68187;42.682;23.352;2023-05-10T01:45:47;8.45;;;5.97;;
78834;SDS011;68187;42.682;23.352;2023-05-10T01:48:23;9.70;;;6.53;;
78834;SDS011;68187;42.682;23.352;2023-05-10T01:53:21;9.02;;;6.82;;
78834;SDS011;68187;42.682;23.352;2023-05-10T01:55:49;10.18;;;6.13;;
78834;SDS011;68187;42.682;23.352;2023-05-10T01:58:20;8.32;;;7.15;;
78834;SDS011;68187;42.682;23.352;2023-05-10T02:00:49;9.48;;;6.10;;
78834;SDS011;68187;42.682;23.352;2023-05-10T02:03:18;11.52;;;7.18;;
78834;SDS011;68187;42.682;23.352;2023-05-10T02:05:49;9.55;;;6.18;;
78834;SDS011;68187;42.682;23.352;2023-05-10T02:08:18;8.15;;;5.72;;
78834;SDS011;68187;42.682;23.352;2023-05-10T02:10:47;8.38;;;6.15;;
78834;SDS011;68187;42.682;23.352;2023-05-10T02:13:15;7.85;;;5.85;;
78834;SDS011;68187;42.682;23.352;2023-05-10T02:15:43;7.57;;;6.65;;
78834;SDS011;68187;42.682;23.352;2023-05-10T02:18:13;8.13;;;6.00;;
78834;SDS011;68187;42.682;23.352;2023-05-10T02:20:41;6.72;;;4.90;;
78834;SDS011;68187;42.682;23.352;2023-05-10T02:23:12;7.47;;;5.05;;
78834;SDS011;68187;42.682;23.352;2023-05-10T02:25:39;6.63;;;5.03;;
78834;SDS011;68187;42.682;23.352;2023-05-10T02:28:09;6.88;;;5.88;;
78834;SDS011;68187;42.682;23.352;2023-05-10T02:30:38;9.52;;;5.40;;
78834;SDS011;68187;42.682;23.352;2023-05-10T02:33:05;7.45;;;5.57;;
78834;SDS011;68187;42.682;23.352;2023-05-10T02:35:33;10.80;;;5.57;;
78834;SDS011;68187;42.682;23.352;2023-05-10T02:38:01;7.72;;;5.68;;
78834;SDS011;68187;42.682;23.352;2023-05-10T02:40:30;10.98;;;5.65;;
78834;SDS011;68187;42.682;23.352;2023-05-10T02:42:58;7.97;;;5.22;;
78834;SDS011;68187;42.682;23.352;2023-05-10T02:45:27;7.65;;;5.40;;
78834;SDS011;68187;42.682;23.352;2023-05-10T02:47:57;8.10;;;6.03;;
78834;SDS011;68187;42.682;23.352;2023-05-10T02:50:25;7.55;;;4.28;;
78834;SDS011;68187;42.682;23.352;2023-05-10T02:52:54;8.85;;;5.70;;
78834;SDS011;68187;42.682;23.352;2023-05-10T02:55:26;7.88;;;5.45;;
78834;SDS011;68187;42.682;23.352;2023-05-10T02:58:00;8.68;;;6.05;;
78834;SDS011;68187;42.682;23.352;2023-05-10T03:00:27;7.47;;;5.43;;
78834;SDS011;68187;42.682;23.352;2023-05-10T03:02:54;9.85;;;6.43;;
78834;SDS011;68187;42.682;23.352;2023-05-10T03:05:21;8.52;;;5.18;;
78834;SDS011;68187;42.682;23.352;2023-05-10T03:07:48;11.90;;;6.13;;
78834;SDS011;68187;42.682;23.352;2023-05-10T03:10:16;9.82;;;5.85;;
78834;SDS011;68187;42.682;23.352;2023-05-10T03:12:47;8.20;;;4.80;;
78834;SDS011;68187;42.682;23.352;2023-05-10T03:15:25;9.07;;;5.57;;
78834;SDS011;68187;42.682;23.352;2023-05-10T03:18:01;9.00;;;5.65;;
78834;SDS011;68187;42.682;23.352;2023-05-10T03:20:31;7.97;;;6.50;;
78834;SDS011;68187;42.682;23.352;2023-05-10T03:23:05;8.05;;;5.85;;
78834;SDS011;68187;42.682;23.352;2023-05-10T03:25:38;7.28;;;5.63;;
78834;SDS011;68187;42.682;23.352;2023-05-10T03:28:06;9.93;;;5.15;;
78834;SDS011;68187;42.682;23.352;2023-05-10T03:30:34;8.15;;;5.78;;
78834;SDS011;68187;42.682;23.352;2023-05-10T03:33:04;8.85;;;6.13;;
78834;SDS011;68187;42.682;23.352;2023-05-10T03:35:31;10.77;;;5.97;;
78834;SDS011;68187;42.682;23.352;2023-05-10T03:37:58;7.85;;;5.70;;
78834;SDS011;68187;42.682;23.352;2023-05-10T03:40:25;8.10;;;4.82;;
78834;SDS011;68187;42.682;23.352;2023-05-10T03:42:54;9.35;;;5.88;;
78834;SDS011;68187;42.682;23.352;2023-05-10T03:45:20;7.70;;;5.38;;
78834;SDS011;68187;42.682;23.352;2023-05-10T03:47:48;8.77;;;5.45;;
78834;SDS011;68187;42.682;23.352;2023-05-10T03:50:15;9.50;;;6.47;;
78834;SDS011;68187;42.682;23.352;2023-05-10T03:52:42;7.72;;;6.55;;
78834;SDS011;68187;42.682;23.352;2023-05-10T03:55:09;8.75;;;5.78;;
78834;SDS011;68187;42.682;23.352;2023-05-10T03:57:36;8.02;;;6.00;;
78834;SDS011;68187;42.682;23.352;2023-05-10T04:00:03;10.25;;;6.75;;
78834;SDS011;68187;42.682;23.352;2023-05-10T04:02:31;7.95;;;6.45;;
78834;SDS011;68187;42.682;23.352;2023-05-10T04:04:59;9.13;;;6.82;;
78834;SDS011;68187;42.682;23.352;2023-05-10T04:07:26;8.52;;;5.30;;
78834;SDS011;68187;42.682;23.352;2023-05-10T04:09:52;9.73;;;6.90;;
78834;SDS011;68187;42.682;23.352;2023-05-10T04:12:19;9.57;;;5.75;;
78834;SDS011;68187;42.682;23.352;2023-05-10T04:14:46;7.95;;;4.70;;
78834;SDS011;68187;42.682;23.352;2023-05-10T04:17:12;11.35;;;5.45;;
78834;SDS011;68187;42.682;23.352;2023-05-10T04:19:39;8.05;;;4.57;;
78834;SDS011;68187;42.682;23.352;2023-05-10T04:22:07;8.60;;;5.07;;
78834;SDS011;68187;42.682;23.352;2023-05-10T04:24:34;8.15;;;6.00;;
78834;SDS011;68187;42.682;23.352;2023-05-10T04:27:01;9.63;;;6.50;;
78834;SDS011;68187;42.682;23.352;2023-05-10T04:29:27;9.23;;;6.03;;
78834;SDS011;68187;42.682;23.352;2023-05-10T04:31:54;8.25;;;6.22;;
78834;SDS011;68187;42.682;23.352;2023-05-10T04:34:21;7.50;;;5.43;;
78834;SDS011;68187;42.682;23.352;2023-05-10T04:36:48;8.65;;;5.82;;
78834;SDS011;68187;42.682;23.352;2023-05-10T04:39:16;10.18;;;6.22;;
78834;SDS011;68187;42.682;23.352;2023-05-10T04:41:43;7.65;;;5.72;;
78834;SDS011;68187;42.682;23.352;2023-05-10T04:44:10;10.38;;;7.20;;
78834;SDS011;68187;42.682;23.352;2023-05-10T04:46:36;8.02;;;5.75;;
78834;SDS011;68187;42.682;23.352;2023-05-10T04:49:03;9.65;;;5.78;;
78834;SDS011;68187;42.682;23.352;2023-05-10T04:51:30;9.25;;;5.70;;
78834;SDS011;68187;42.682;23.352;2023-05-10T04:53:57;8.20;;;5.45;;
78834;SDS011;68187;42.682;23.352;2023-05-10T04:56:25;8.38;;;6.47;;
78834;SDS011;68187;42.682;23.352;2023-05-10T04:58:51;9.60;;;6.03;;
78834;SDS011;68187;42.682;23.352;2023-05-10T05:01:18;8.35;;;5.45;;
78834;SDS011;68187;42.682;23.352;2023-05-10T05:03:45;12.90;;;7.38;;
78834;SDS011;68187;42.682;23.352;2023-05-10T05:06:11;7.95;;;6.40;;
78834;SDS011;68187;42.682;23.352;2023-05-10T05:08:38;9.57;;;6.75;;
78834;SDS011;68187;42.682;23.352;2023-05-10T05:11:05;9.48;;;6.28;;
78834;SDS011;68187;42.682;23.352;2023-05-10T05:13:33;9.25;;;6.22;;
78834;SDS011;68187;42.682;23.352;2023-05-10T05:16:00;9.93;;;6.60;;
78834;SDS011;68187;42.682;23.352;2023-05-10T05:18:27;8.57;;;7.00;;
78834;SDS011;68187;42.682;23.352;2023-05-10T05:20:54;12.05;;;7.93;;
78834;SDS011;68187;42.682;23.352;2023-05-10T05:23:21;9.23;;;6.03;;
78834;SDS011;68187;42.682;23.352;2023-05-10T05:25:50;10.90;;;6.60;;
78834;SDS011;68187;42.682;23.352;2023-05-10T05:28:17;9.35;;;6.70;;
78834;SDS011;68187;42.682;23.352;2023-05-10T05:30:45;10.90;;;6.57;;
78834;SDS011;68187;42.682;23.352;2023-05-10T05:33:13;11.38;;;6.15;;
78834;SDS011;68187;42.682;23.352;2023-05-10T05:35:40;10.80;;;8.20;;
78834;SDS011;68187;42.682;23.352;2023-05-10T05:38:08;10.98;;;7.63;;
78834;SDS011;68187;42.682;23.352;2023-05-10T05:40:34;11.00;;;7.07;;
78834;SDS011;68187;42.682;23.352;2023-05-10T05:43:02;11.77;;;7.68;;
78834;SDS011;68187;42.682;23.352;2023-05-10T05:45:28;10.73;;;7.30;;
78834;SDS011;68187;42.682;23.352;2023-05-10T05:47:56;9.90;;;7.55;;
78834;SDS011;68187;42.682;23.352;2023-05-10T05:50:23;10.90;;;7.20;;
78834;SDS011;68187;42.682;23.352;2023-05-10T05:52:50;14.13;;;7.68;;
78834;SDS011;68187;42.682;23.352;2023-05-10T05:55:16;10.88;;;7.85;;
78834;SDS011;68187;42.682;23.352;2023-05-10T05:57:43;9.88;;;7.25;;
78834;SDS011;68187;42.682;23.352;2023-05-10T06:00:11;10.07;;;7.20;;
78834;SDS011;68187;42.682;23.352;2023-05-10T06:02:38;11.20;;;7.60;;
78834;SDS011;68187;42.682;23.352;2023-05-10T06:05:07;10.30;;;7.15;;
78834;SDS011;68187;42.682;23.352;2023-05-10T06:07:34;10.82;;;7.43;;
78834;SDS011;68187;42.682;23.352;2023-05-10T06:10:01;11.23;;;7.25;;
78834;SDS011;68187;42.682;23.352;2023-05-10T06:12:28;9.73;;;7.20;;
78834;SDS011;68187;42.682;23.352;2023-05-10T06:14:55;9.85;;;6.65;;
78834;SDS011;68187;42.682;23.352;2023-05-10T06:17:21;10.93;;;7.38;;
78834;SDS011;68187;42.682;23.352;2023-05-10T06:19:49;13.23;;;6.80;;
78834;SDS011;68187;42.682;23.352;2023-05-10T06:22:17;12.50;;;6.95;;
78834;SDS011;68187;42.682;23.352;2023-05-10T06:24:44;12.48;;;8.05;;
78834;SDS011;68187;42.682;23.352;2023-05-10T06:27:10;10.65;;;6.72;;
78834;SDS011;68187;42.682;23.352;2023-05-10T06:29:37;10.77;;;7.20;;
78834;SDS011;68187;42.682;23.352;2023-05-10T06:32:04;11.88;;;7.57;;
78834;SDS011;68187;42.682;23.352;2023-05-10T06:34:31;9.88;;;6.47;;
78834;SDS011;68187;42.682;23.352;2023-05-10T06:36:57;11.13;;;6.50;;
78834;SDS011;68187;42.682;23.352;2023-05-10T06:39:26;11.95;;;8.63;;
78834;SDS011;68187;42.682;23.352;2023-05-10T06:41:54;12.35;;;7.53;;
78834;SDS011;68187;42.682;23.352;2023-05-10T06:44:21;10.55;;;6.97;;
78834;SDS011;68187;42.682;23.352;2023-05-10T06:46:47;10.40;;;5.95;;
78834;SDS011;68187;42.682;23.352;2023-05-10T06:49:14;13.30;;;7.65;;
78834;SDS011;68187;42.682;23.352;2023-05-10T06:51:41;11.35;;;6.78;;
78834;SDS011;68187;42.682;23.352;2023-05-10T06:54:08;9.68;;;6.10;;
78834;SDS011;68187;42.682;23.352;2023-05-10T06:56:36;9.15;;;7.53;;
78834;SDS011;68187;42.682;23.352;2023-05-10T06:59:03;8.98;;;5.25;;
78834;SDS011;68187;42.682;23.352;2023-05-10T07:01:29;9.70;;;6.53;;
78834;SDS011;68187;42.682;23.352;2023-05-10T07:03:56;10.60;;;7.75;;
78834;SDS011;68187;42.682;23.352;2023-05-10T07:06:23;11.20;;;7.53;;
78834;SDS011;68187;42.682;23.352;2023-05-10T07:08:50;10.75;;;7.55;;
78834;SDS011;68187;42.682;23.352;2023-05-10T07:11:16;9.32;;;7.03;;
78834;SDS011;68187;42.682;23.352;2023-05-10T07:13:44;9.38;;;6.05;;
78834;SDS011;68187;42.682;23.352;2023-05-10T07:16:11;11.55;;;5.93;;
78834;SDS011;68187;42.682;23.352;2023-05-10T07:18:38;9.65;;;6.85;;
78834;SDS011;68187;42.682;23.352;2023-05-10T07:21:05;9.63;;;6.50;;
78834;SDS011;68187;42.682;23.352;2023-05-10T07:23:31;9.93;;;6.95;;
78834;SDS011;68187;42.682;23.352;2023-05-10T07:25:58;9.18;;;5.90;;
78834;SDS011;68187;42.682;23.352;2023-05-10T07:28:25;9.77;;;6.53;;
78834;SDS011;68187;42.682;23.352;2023-05-10T07:30:53;9.43;;;6.50;;
78834;SDS011;68187;42.682;23.352;2023-05-10T07:33:19;10.75;;;7.88;;
78834;SDS011;68187;42.682;23.352;2023-05-10T07:35:46;12.38;;;7.80;;
78834;SDS011;68187;42.682;23.352;2023-05-10T07:38:13;9.48;;;7.35;;
78834;SDS011;68187;42.682;23.352;2023-05-10T07:40:40;10.13;;;7.47;;
78834;SDS011;68187;42.682;23.352;2023-05-10T07:43:06;11.30;;;7.30;;
78834;SDS011;68187;42.682;23.352;2023-05-10T07:45:33;10.20;;;6.18;;
78834;SDS011;68187;42.682;23.352;2023-05-10T07:48:01;10.43;;;9.13;;
78834;SDS011;68187;42.682;23.352;2023-05-10T07:50:28;11.25;;;7.45;;
78834;SDS011;68187;42.682;23.352;2023-05-10T07:52:55;11.90;;;8.25;;
78834;SDS011;68187;42.682;23.352;2023-05-10T07:55:22;12.55;;;8.15;;
78834;SDS011;68187;42.682;23.352;2023-05-10T07:57:49;11.25;;;7.50;;
78834;SDS011;68187;42.682;23.352;2023-05-10T08:00:17;11.75;;;8.60;;
78834;SDS011;68187;42.682;23.352;2023-05-10T08:02:45;10.77;;;9.02;;
78834;SDS011;68187;42.682;23.352;2023-05-10T08:05:13;11.55;;;8.38;;
78834;SDS011;68187;42.682;23.352;2023-05-10T08:07:40;13.73;;;8.90;;
78834;SDS011;68187;42.682;23.352;2023-05-10T08:10:08;11.70;;;7.63;;
78834;SDS011;68187;42.682;23.352;2023-05-10T08:12:36;9.20;;;7.28;;
78834;SDS011;68187;42.682;23.352;2023-05-10T08:15:03;11.45;;;8.35;;
78834;SDS011;68187;42.682;23.352;2023-05-10T08:17:31;12.23;;;8.75;;
78834;SDS011;68187;42.682;23.352;2023-05-10T08:19:58;12.68;;;9.15;;
78834;SDS011;68187;42.682;23.352;2023-05-10T08:22:26;11.40;;;7.88;;
78834;SDS011;68187;42.682;23.352;2023-05-10T08:24:53;10.95;;;8.48;;
78834;SDS011;68187;42.682;23.352;2023-05-10T08:27:20;11.90;;;7.07;;
78834;SDS011;68187;42.682;23.352;2023-05-10T08:29:46;10.05;;;8.10;;
78834;SDS011;68187;42.682;23.352;2023-05-10T08:32:13;11.48;;;8.90;;
78834;SDS011;68187;42.682;23.352;2023-05-10T08:34:40;10.50;;;9.00;;
78834;SDS011;68187;42.682;23.352;2023-05-10T08:37:07;14.25;;;8.68;;
78834;SDS011;68187;42.682;23.352;2023-05-10T08:39:35;10.80;;;8.13;;
78834;SDS011;68187;42.682;23.352;2023-05-10T08:42:03;10.38;;;8.02;;
78834;SDS011;68187;42.682;23.352;2023-05-10T08:44:31;11.75;;;7.72;;
78834;SDS011;68187;42.682;23.352;2023-05-10T08:47:01;11.73;;;8.07;;
78834;SDS011;68187;42.682;23.352;2023-05-10T08:49:30;11.90;;;7.72;;
78834;SDS011;68187;42.682;23.352;2023-05-10T08:51:58;10.38;;;8.05;;
78834;SDS011;68187;42.682;23.352;2023-05-10T08:54:28;11.80;;;7.53;;
78834;SDS011;68187;42.682;23.352;2023-05-10T08:56:57;10.52;;;7.93;;
78834;SDS011;68187;42.682;23.352;2023-05-10T08:59:24;10.90;;;8.27;;
78834;SDS011;68187;42.682;23.352;2023-05-10T09:01:51;14.23;;;10.63;;
78834;SDS011;68187;42.682;23.352;2023-05-10T09:04:20;10.30;;;7.88;;
78834;SDS011;68187;42.682;23.352;2023-05-10T09:06:47;11.85;;;9.63;;
78834;SDS011;68187;42.682;23.352;2023-05-10T09:09:14;12.88;;;7.82;;
78834;SDS011;68187;42.682;23.352;2023-05-10T09:11:44;10.98;;;8.23;;
78834;SDS011;68187;42.682;23.352;2023-05-10T09:14:12;12.65;;;7.82;;
78834;SDS011;68187;42.682;23.352;2023-05-10T09:16:41;9.77;;;7.65;;
78834;SDS011;68187;42.682;23.352;2023-05-10T09:19:08;11.90;;;8.25;;
78834;SDS011;68187;42.682;23.352;2023-05-10T09:21:35;9.98;;;8.77;;
78834;SDS011;68187;42.682;23.352;2023-05-10T09:24:03;12.95;;;9.18;;
78834;SDS011;68187;42.682;23.352;2023-05-10T09:26:31;11.93;;;9.13;;
78834;SDS011;68187;42.682;23.352;2023-05-10T09:28:59;11.68;;;9.25;;
78834;SDS011;68187;42.682;23.352;2023-05-10T09:36:50;13.00;;;7.78;;
78834;SDS011;68187;42.682;23.352;2023-05-10T09:39:17;14.35;;;9.88;;
78834;SDS011;68187;42.682;23.352;2023-05-10T09:41:44;13.77;;;10.38;;
78834;SDS011;68187;42.682;23.352;2023-05-10T09:44:11;14.10;;;9.13;;
78834;SDS011;68187;42.682;23.352;2023-05-10T09:46:38;11.75;;;9.02;;
78834;SDS011;68187;42.682;23.352;2023-05-10T09:49:06;12.32;;;8.57;;
78834;SDS011;68187;42.682;23.352;2023-05-10T09:51:33;11.90;;;8.70;;
78834;SDS011;68187;42.682;23.352;2023-05-10T09:54:10;12.50;;;7.90;;
78834;SDS011;68187;42.682;23.352;2023-05-10T09:56:38;10.80;;;9.50;;
78834;SDS011;68187;42.682;23.352;2023-05-10T09:59:06;9.07;;;7.63;;
78834;SDS011;68187;42.682;23.352;2023-05-10T10:01:34;11.45;;;7.57;;
78834;SDS011;68187;42.682;23.352;2023-05-10T10:04:02;13.80;;;7.93;;
78834;SDS011;68187;42.682;23.352;2023-05-10T10:06:34;10.55;;;7.82;;
78834;SDS011;68187;42.682;23.352;2023-05-10T10:09:02;11.80;;;7.53;;
78834;SDS011;68187;42.682;23.352;2023-05-10T10:11:28;10.55;;;7.47;;
78834;SDS011;68187;42.682;23.352;2023-05-10T10:13:55;10.45;;;7.55;;
78834;SDS011;68187;42.682;23.352;2023-05-10T10:16:22;8.27;;;5.88;;
78834;SDS011;68187;42.682;23.352;2023-05-10T10:18:50;12.05;;;7.40;;
78834;SDS011;68187;42.682;23.352;2023-05-10T10:21:16;7.97;;;7.00;;
78834;SDS011;68187;42.682;23.352;2023-05-10T10:23:45;11.68;;;8.18;;
78834;SDS011;68187;42.682;23.352;2023-05-10T10:26:12;10.85;;;8.80;;
78834;SDS011;68187;42.682;23.352;2023-05-10T10:28:43;8.40;;;6.00;;
78834;SDS011;68187;42.682;23.352;2023-05-10T10:31:20;9.38;;;6.78;;
78834;SDS011;68187;42.682;23.352;2023-05-10T10:33:59;9.77;;;8.25;;
78834;SDS011;68187;42.682;23.352;2023-05-10T10:36:28;8.10;;;6.50;;
78834;SDS011;68187;42.682;23.352;2023-05-10T10:38:57;9.85;;;7.28;;
78834;SDS011;68187;42.682;23.352;2023-05-10T10:41:32;9.52;;;7.20;;
78834;SDS011;68187;42.682;23.352;2023-05-10T10:46:59;11.38;;;7.82;;
78834;SDS011;68187;42.682;23.352;2023-05-10T10:49:27;11.55;;;7.78;;
78834;SDS011;68187;42.682;23.352;2023-05-10T10:52:13;11.00;;;7.10;;
78834;SDS011;68187;42.682;23.352;2023-05-10T10:54:45;9.45;;;6.18;;
78834;SDS011;68187;42.682;23.352;2023-05-10T10:57:17;8.40;;;6.75;;
78834;SDS011;68187;42.682;23.352;2023-05-10T10:59:44;9.88;;;6.40;;
78834;SDS011;68187;42.682;23.352;2023-05-10T11:02:17;9.40;;;6.50;;
78834;SDS011;68187;42.682;23.352;2023-05-10T11:04:59;10.00;;;7.03;;
78834;SDS011;68187;42.682;23.352;2023-05-10T11:07:27;9.25;;;7.07;;
78834;SDS011;68187;42.682;23.352;2023-05-10T11:09:55;10.95;;;6.07;;
78834;SDS011;68187;42.682;23.352;2023-05-10T11:12:29;9.27;;;6.30;;
78834;SDS011;68187;42.682;23.352;2023-05-10T11:14:56;7.72;;;6.10;;
78834;SDS011;68187;42.682;23.352;2023-05-10T11:17:23;10.82;;;7.72;;
78834;SDS011;68187;42.682;23.352;2023-05-10T11:20:09;11.00;;;6.10;;
78834;SDS011;68187;42.682;23.352;2023-05-10T11:25:25;8.15;;;5.75;;
78834;SDS011;68187;42.682;23.352;2023-05-10T11:27:53;8.95;;;6.88;;
78834;SDS011;68187;42.682;23.352;2023-05-10T11:30:19;10.45;;;5.78;;
78834;SDS011;68187;42.682;23.352;2023-05-10T11:32:47;10.07;;;5.72;;
78834;SDS011;68187;42.682;23.352;2023-05-10T11:35:14;8.45;;;6.90;;
78834;SDS011;68187;42.682;23.352;2023-05-10T11:37:40;9.27;;;6.90;;
78834;SDS011;68187;42.682;23.352;2023-05-10T11:40:09;11.05;;;8.52;;
78834;SDS011;68187;42.682;23.352;2023-05-10T11:42:38;13.02;;;6.63;;
78834;SDS011;68187;42.682;23.352;2023-05-10T11:45:05;10.32;;;6.97;;
78834;SDS011;68187;42.682;23.352;2023-05-10T11:47:33;11.15;;;7.32;;
78834;SDS011;68187;42.682;23.352;2023-05-10T11:50:02;11.73;;;7.30;;
78834;SDS011;68187;42.682;23.352;2023-05-10T11:52:29;11.77;;;6.88;;
78834;SDS011;68187;42.682;23.352;2023-05-10T11:55:02;9.55;;;6.90;;
78834;SDS011;68187;42.682;23.352;2023-05-10T11:57:30;9.27;;;7.03;;
78834;SDS011;68187;42.682;23.352;2023-05-10T11:59:58;11.85;;;7.40;;
78834;SDS011;68187;42.682;23.352;2023-05-10T12:02:25;12.48;;;8.50;;
78834;SDS011;68187;42.682;23.352;2023-05-10T12:04:52;9.77;;;6.43;;
78834;SDS011;68187;42.682;23.352;2023-05-10T12:07:21;14.65;;;6.22;;
78834;SDS011;68187;42.682;23.352;2023-05-10T12:10:02;13.50;;;7.13;;
78834;SDS011;68187;42.682;23.352;2023-05-10T12:12:34;10.63;;;7.07;;
78834;SDS011;68187;42.682;23.352;2023-05-10T12:15:04;9.43;;;7.28;;
78834;SDS011;68187;42.682;23.352;2023-05-10T12:17:37;9.70;;;6.88;;
78834;SDS011;68187;42.682;23.352;2023-05-10T12:20:14;9.13;;;7.18;;
78834;SDS011;68187;42.682;23.352;2023-05-10T12:22:44;9.05;;;7.95;;
78834;SDS011;68187;42.682;23.352;2023-05-10T12:25:11;9.10;;;7.35;;
78834;SDS011;68187;42.682;23.352;2023-05-10T12:27:38;11.52;;;7.68;;
78834;SDS011;68187;42.682;23.352;2023-05-10T12:30:07;10.38;;;5.53;;
78834;SDS011;68187;42.682;23.352;2023-05-10T12:32:40;12.18;;;7.05;;
78834;SDS011;68187;42.682;23.352;2023-05-10T12:35:07;10.32;;;8.20;;
78834;SDS011;68187;42.682;23.352;2023-05-10T12:37:35;13.93;;;7.85;;
78834;SDS011;68187;42.682;23.352;2023-05-10T12:40:05;10.23;;;7.38;;
78834;SDS011;68187;42.682;23.352;2023-05-10T12:42:34;10.63;;;7.18;;
78834;SDS011;68187;42.682;23.352;2023-05-10T12:45:02;9.52;;;7.35;;
78834;SDS011;68187;42.682;23.352;2023-05-10T12:47:31;11.35;;;7.65;;
78834;SDS011;68187;42.682;23.352;2023-05-10T12:49:58;13.02;;;6.95;;
78834;SDS011;68187;42.682;23.352;2023-05-10T12:52:27;10.48;;;6.90;;
78834;SDS011;68187;42.682;23.352;2023-05-10T12:54:55;9.05;;;5.85;;
78834;SDS011;68187;42.682;23.352;2023-05-10T12:57:21;8.35;;;5.35;;
78834;SDS011;68187;42.682;23.352;2023-05-10T12:59:48;10.52;;;6.45;;
78834;SDS011;68187;42.682;23.352;2023-05-10T13:02:15;11.45;;;8.05;;
78834;SDS011;68187;42.682;23.352;2023-05-10T13:04:44;9.73;;;6.50;;
78834;SDS011;68187;42.682;23.352;2023-05-10T13:07:11;9.32;;;6.85;;
78834;SDS011;68187;42.682;23.352;2023-05-10T13:09:41;8.80;;;6.70;;
78834;SDS011;68187;42.682;23.352;2023-05-10T13:12:08;12.80;;;7.55;;
78834;SDS011;68187;42.682;23.352;2023-05-10T13:14:35;9.80;;;7.32;;
78834;SDS011;68187;42.682;23.352;2023-05-10T13:17:02;11.88;;;7.10;;
78834;SDS011;68187;42.682;23.352;2023-05-10T13:19:28;9.68;;;5.90;;
78834;SDS011;68187;42.682;23.352;2023-05-10T13:21:56;9.70;;;7.03;;
78834;SDS011;68187;42.682;23.352;2023-05-10T13:24:23;9.95;;;7.20;;
78834;SDS011;68187;42.682;23.352;2023-05-10T13:26:50;11.40;;;8.35;;
78834;SDS011;68187;42.682;23.352;2023-05-10T13:29:17;9.45;;;6.63;;
78834;SDS011;68187;42.682;23.352;2023-05-10T13:31:44;9.43;;;6.55;;
78834;SDS011;68187;42.682;23.352;2023-05-10T13:34:11;10.93;;;7.30;;
78834;SDS011;68187;42.682;23.352;2023-05-10T13:36:38;10.73;;;6.50;;
78834;SDS011;68187;42.682;23.352;2023-05-10T13:39:06;9.07;;;7.20;;
78834;SDS011;68187;42.682;23.352;2023-05-10T13:41:33;10.25;;;6.30;;
78834;SDS011;68187;42.682;23.352;2023-05-10T13:44:00;10.50;;;6.53;;
78834;SDS011;68187;42.682;23.352;2023-05-10T13:46:28;11.32;;;5.63;;
78834;SDS011;68187;42.682;23.352;2023-05-10T13:48:55;7.97;;;5.80;;
78834;SDS011;68187;42.682;23.352;2023-05-10T13:51:23;10.00;;;6.22;;
78834;SDS011;68187;42.682;23.352;2023-05-10T13:53:49;9.85;;;7.28;;
78834;SDS011;68187;42.682;23.352;2023-05-10T13:59:09;8.68;;;6.28;;
78834;SDS011;68187;42.682;23.352;2023-05-10T14:01:35;11.88;;;6.38;;
78834;SDS011;68187;42.682;23.352;2023-05-10T14:04:03;10.15;;;6.28;;
78834;SDS011;68187;42.682;23.352;2023-05-10T14:06:30;9.02;;;6.65;;
78834;SDS011;68187;42.682;23.352;2023-05-10T14:08:57;9.32;;;6.65;;
78834;SDS011;68187;42.682;23.352;2023-05-10T14:11:23;9.77;;;5.78;;
78834;SDS011;68187;42.682;23.352;2023-05-10T14:13:51;8.43;;;6.20;;
78834;SDS011;68187;42.682;23.352;2023-05-10T14:16:18;8.98;;;6.38;;
78834;SDS011;68187;42.682;23.352;2023-05-10T14:18:45;11.23;;;6.95;;
78834;SDS011;68187;42.682;23.352;2023-05-10T14:21:12;11.55;;;5.95;;
78834;SDS011;68187;42.682;23.352;2023-05-10T14:23:38;9.07;;;5.70;;
78834;SDS011;68187;42.682;23.352;2023-05-10T14:26:05;11.10;;;6.93;;
78834;SDS011;68187;42.682;23.352;2023-05-10T14:28:33;9.88;;;6.45;;
78834;SDS011;68187;42.682;23.352;2023-05-10T14:31:01;9.52;;;6.75;;
78834;SDS011;68187;42.682;23.352;2023-05-10T14:33:28;10.43;;;7.70;;
78834;SDS011;68187;42.682;23.352;2023-05-10T14:35:55;11.48;;;7.45;;
78834;SDS011;68187;42.682;23.352;2023-05-10T14:38:22;11.05;;;7.22;;
78834;SDS011;68187;42.682;23.352;2023-05-10T14:40:49;12.52;;;5.85;;
78834;SDS011;68187;42.682;23.352;2023-05-10T14:43:16;10.85;;;6.57;;
78834;SDS011;68187;42.682;23.352;2023-05-10T14:45:42;10.23;;;8.13;;
78834;SDS011;68187;42.682;23.352;2023-05-10T14:48:11;10.88;;;6.38;;
78834;SDS011;68187;42.682;23.352;2023-05-10T14:50:40;31.05;;;7.93;;
78834;SDS011;68187;42.682;23.352;2023-05-10T14:56:01;10.80;;;6.60;;